Time;durP1;ratioP1;P1;durP2;ratioP2;P2;SDS_P1;SDS_P2;PMS_P1;PMS_P2;Temp;Humidity;BMP_temperature;BMP_pressure;BME280_temperature;BME280_humidity;BME280_pressure;Samples;Min_cycle;Max_cycle;Signal;HPM_P1;HPM_P2
2021/01/24 00:02:09;;;;;;;34.45;17.15;;;7.50;95.90;;;;;;5096212;28;20059;-74
2021/01/24 00:04:35;;;;;;;32.95;17.10;;;7.50;95.90;;;;;;5096318;28;20035;-77
2021/01/24 00:07:01;;;;;;;30.88;16.80;;;7.50;95.90;;;;;;5096631;28;20031;-77
2021/01/24 00:09:27;;;;;;;28.77;15.98;;;7.50;96.00;;;;;;5096032;28;20062;-77
2021/01/24 00:11:53;;;;;;;29.65;16.10;;;7.50;96.10;;;;;;5075279;28;20044;-77
2021/01/24 00:14:18;;;;;;;30.02;15.30;;;7.50;96.00;;;;;;5077723;28;20107;-77
2021/01/24 00:16:44;;;;;;;27.25;15.70;;;7.50;96.10;;;;;;5095302;28;20024;-76
2021/01/24 00:19:10;;;;;;;28.00;14.63;;;7.50;96.20;;;;;;5096149;28;20452;-77
2021/01/24 00:21:35;;;;;;;27.42;15.77;;;7.60;96.30;;;;;;5077861;28;20039;-77
2021/01/24 00:24:01;;;;;;;24.73;14.30;;;7.60;96.30;;;;;;5077452;28;20031;-77
2021/01/24 00:26:27;;;;;;;28.02;14.07;;;7.60;96.30;;;;;;5095855;28;20028;-76
2021/01/24 00:28:52;;;;;;;28.20;15.35;;;7.60;96.30;;;;;;5095533;28;20028;-75
2021/01/24 00:31:18;;;;;;;31.63;16.15;;;7.60;96.40;;;;;;5095466;28;20062;-76
2021/01/24 00:33:44;;;;;;;28.83;16.05;;;7.70;96.50;;;;;;5095743;28;20071;-73
2021/01/24 00:36:11;;;;;;;29.33;15.48;;;7.70;96.50;;;;;;5095493;28;20122;-77
2021/01/24 00:38:37;;;;;;;31.13;15.25;;;7.80;96.60;;;;;;5096181;28;20459;-77
2021/01/24 00:41:04;;;;;;;37.30;18.27;;;7.80;96.60;;;;;;5095387;28;20040;-77
2021/01/24 00:43:31;;;;;;;32.78;15.85;;;7.80;96.60;;;;;;5095587;28;20031;-77
2021/01/24 00:45:58;;;;;;;47.35;23.17;;;7.90;96.50;;;;;;5094588;28;20448;-77
2021/01/24 00:48:24;;;;;;;36.33;18.15;;;7.90;96.50;;;;;;5095535;28;20107;-77
2021/01/24 00:50:49;;;;;;;32.58;17.20;;;7.90;96.50;;;;;;5095419;28;20450;-76
2021/01/24 00:53:15;;;;;;;34.45;16.50;;;7.90;96.60;;;;;;5077264;28;20081;-77
2021/01/24 00:55:41;;;;;;;34.05;16.50;;;8.00;96.50;;;;;;5077659;28;20024;-76
2021/01/24 00:58:07;;;;;;;33.28;16.70;;;8.00;96.50;;;;;;5094955;28;20030;-77
2021/01/24 01:00:32;;;;;;;33.13;16.20;;;8.00;96.40;;;;;;5095117;28;20039;-77
2021/01/24 01:02:58;;;;;;;33.50;17.45;;;8.00;96.40;;;;;;5095279;28;20089;-77
2021/01/24 01:05:24;;;;;;;37.72;16.92;;;7.90;96.40;;;;;;5095232;28;20455;-77
2021/01/24 01:07:49;;;;;;;33.72;15.52;;;8.00;96.40;;;;;;5094905;28;20042;-74
2021/01/24 01:10:15;;;;;;;34.08;16.77;;;8.00;96.50;;;;;;5095021;28;20068;-77
2021/01/24 01:12:41;;;;;;;37.33;17.05;;;8.00;96.60;;;;;;5095025;28;20039;-77
2021/01/24 01:15:07;;;;;;;36.60;17.50;;;8.00;96.60;;;;;;5076650;28;20052;-77
2021/01/24 01:17:33;;;;;;;35.70;17.80;;;8.00;96.60;;;;;;5076919;28;20035;-77
2021/01/24 01:19:59;;;;;;;39.28;17.35;;;8.00;96.60;;;;;;5076400;28;20028;-77
2021/01/24 01:22:24;;;;;;;36.75;17.35;;;8.00;96.60;;;;;;5094781;28;20103;-77
2021/01/24 01:24:50;;;;;;;36.40;16.33;;;8.00;96.60;;;;;;5094945;28;20084;-77
2021/01/24 01:27:15;;;;;;;33.75;16.75;;;8.00;96.60;;;;;;5093650;28;20020;-77
2021/01/24 01:29:41;;;;;;;37.20;16.92;;;8.00;96.50;;;;;;5094526;28;20024;-77
2021/01/24 01:32:07;;;;;;;39.97;18.67;;;8.00;96.50;;;;;;5094418;28;20028;-77
2021/01/24 01:34:32;;;;;;;38.45;17.00;;;7.90;96.40;;;;;;5094941;28;20031;-77
2021/01/24 01:36:58;;;;;;;41.13;15.82;;;7.90;96.40;;;;;;5094415;28;20454;-77
2021/01/24 01:39:24;;;;;;;30.85;14.80;;;7.90;96.50;;;;;;5076477;28;20030;-77
2021/01/24 01:41:50;;;;;;;40.50;15.15;;;7.90;96.50;;;;;;5094178;28;20113;-74
2021/01/24 01:44:15;;;;;;;38.67;17.17;;;7.90;96.50;;;;;;5094336;28;20020;-77
2021/01/24 01:46:41;;;;;;;43.70;18.60;;;7.90;96.60;;;;;;5094459;28;20119;-77
2021/01/24 01:49:07;;;;;;;41.17;17.27;;;7.90;96.70;;;;;;5094318;28;20024;-77
2021/01/24 01:51:33;;;;;;;38.20;17.92;;;7.80;96.70;;;;;;5075908;28;20502;-77
2021/01/24 01:53:59;;;;;;;38.13;17.38;;;7.80;96.80;;;;;;5075851;28;20034;-77
2021/01/24 01:56:25;;;;;;;41.25;17.60;;;7.80;96.80;;;;;;5094242;28;20026;-77
2021/01/24 01:58:51;;;;;;;41.47;18.38;;;7.80;96.90;;;;;;5075975;28;20563;-76
2021/01/24 02:01:35;;;;;;;43.15;17.88;;;7.80;96.90;;;;;;5093823;28;20032;-77
2021/01/24 02:04:26;;;;;;;40.53;19.30;;;7.80;97.00;;;;;;5094031;28;20026;-77
2021/01/24 02:06:59;;;;;;;43.63;18.70;;;7.80;97.00;;;;;;5075698;28;20031;-77
2021/01/24 02:09:39;;;;;;;45.97;20.30;;;7.80;97.10;;;;;;5093857;28;20032;-77
2021/01/24 02:12:36;;;;;;;33.63;14.32;;;7.80;97.10;;;;;;5075604;28;20028;-77
2021/01/24 02:15:05;;;;;;;38.85;18.75;;;7.80;97.10;;;;;;5080167;28;20032;-77
2021/01/24 02:17:45;;;;;;;38.83;18.58;;;7.80;97.10;;;;;;5093772;28;20028;-77
2021/01/24 02:20:22;;;;;;;37.50;17.50;;;7.80;97.20;;;;;;5078830;28;20375;-77
2021/01/24 02:22:51;;;;;;;37.05;14.82;;;7.80;97.10;;;;;;5093766;28;20020;-77
2021/01/24 02:25:53;;;;;;;36.45;16.77;;;7.80;97.20;;;;;;5093454;28;20021;-77
2021/01/24 02:28:47;;;;;;;39.28;17.73;;;7.70;97.20;;;;;;5068832;28;20036;-77
2021/01/24 02:31:15;;;;;;;34.88;17.85;;;7.70;97.30;;;;;;5083552;28;20465;-77
2021/01/24 02:33:42;;;;;;;35.67;16.25;;;7.70;97.40;;;;;;5075459;28;20363;-77
2021/01/24 02:36:09;;;;;;;40.25;18.15;;;7.80;97.50;;;;;;5093656;28;20065;-78
2021/01/24 02:38:38;;;;;;;41.85;17.83;;;7.80;97.60;;;;;;5093092;28;20107;-77
2021/01/24 02:41:08;;;;;;;38.70;17.98;;;7.80;97.60;;;;;;5075942;28;20136;-77
2021/01/24 02:43:35;;;;;;;33.65;16.60;;;7.80;97.60;;;;;;5093453;28;20095;-77
2021/01/24 02:46:03;;;;;;;34.72;17.30;;;7.80;97.60;;;;;;5092871;28;20404;-77
2021/01/24 02:48:29;;;;;;;35.58;17.13;;;7.80;97.70;;;;;;5075067;28;20118;-77
2021/01/24 02:50:55;;;;;;;37.78;17.83;;;7.80;97.70;;;;;;5093059;28;20481;-76
2021/01/24 02:53:23;;;;;;;35.83;17.08;;;7.90;97.80;;;;;;5093658;28;20037;-77
2021/01/24 02:55:49;;;;;;;36.30;16.60;;;7.90;97.80;;;;;;5093312;28;20024;-77
2021/01/24 02:58:15;;;;;;;38.45;18.92;;;8.00;97.80;;;;;;5075149;28;20028;-77
2021/01/24 03:00:41;;;;;;;34.60;17.05;;;8.00;97.70;;;;;;5093074;28;20028;-76
2021/01/24 03:03:07;;;;;;;34.35;17.02;;;8.00;97.60;;;;;;5093124;28;20028;-77
2021/01/24 03:05:33;;;;;;;33.33;17.45;;;8.00;97.50;;;;;;5093332;28;20031;-77
2021/01/24 03:07:59;;;;;;;30.70;14.02;;;8.00;97.50;;;;;;5074758;28;20028;-77
2021/01/24 03:10:25;;;;;;;31.20;16.73;;;8.00;97.50;;;;;;5093254;28;20115;-77
2021/01/24 03:13:16;;;;;;;33.80;17.27;;;8.00;97.60;;;;;;5092799;28;20028;-77
2021/01/24 03:15:44;;;;;;;38.22;17.42;;;8.00;97.50;;;;;;5093081;28;20036;-77
2021/01/24 03:18:20;;;;;;;31.80;13.93;;;8.00;97.60;;;;;;5092543;28;20024;-77
2021/01/24 03:20:49;;;;;;;37.80;18.23;;;8.10;97.60;;;;;;5075251;28;20385;-77
2021/01/24 03:23:16;;;;;;;34.70;16.67;;;8.10;97.60;;;;;;5092824;28;20377;-76
2021/01/24 03:25:43;;;;;;;31.80;16.67;;;8.10;97.60;;;;;;5074884;28;20016;-77
2021/01/24 03:28:10;;;;;;;31.52;16.02;;;8.10;97.60;;;;;;5074578;28;20035;-77
2021/01/24 03:30:36;;;;;;;36.10;16.92;;;8.10;97.50;;;;;;5074535;28;20025;-77
2021/01/24 03:33:03;;;;;;;35.28;17.60;;;8.10;97.50;;;;;;5092775;28;20547;-77
2021/01/24 03:35:29;;;;;;;32.92;17.05;;;8.10;97.50;;;;;;5093056;28;20052;-77
2021/01/24 03:37:54;;;;;;;41.63;18.65;;;8.10;97.40;;;;;;5092748;28;20042;-77
2021/01/24 03:40:20;;;;;;;36.08;16.90;;;8.10;97.40;;;;;;5092921;28;20076;-77
2021/01/24 03:42:46;;;;;;;35.25;16.88;;;8.10;97.50;;;;;;5074677;28;20062;-74
2021/01/24 03:45:12;;;;;;;34.22;16.88;;;8.10;97.50;;;;;;5092540;28;20501;-77
2021/01/24 03:47:38;;;;;;;34.20;18.23;;;8.10;97.50;;;;;;5074302;28;20390;-74
2021/01/24 03:50:05;;;;;;;33.95;16.55;;;8.20;97.50;;;;;;5092364;28;20024;-75
2021/01/24 03:52:31;;;;;;;31.23;16.30;;;8.20;97.40;;;;;;5095823;28;20120;-75
2021/01/24 03:54:56;;;;;;;35.33;16.27;;;8.20;97.40;;;;;;5096795;28;20110;-75
2021/01/24 03:57:23;;;;;;;28.52;14.68;;;8.20;97.30;;;;;;5077954;28;20039;-75
2021/01/24 03:59:51;;;;;;;32.15;16.77;;;8.20;97.30;;;;;;5077826;28;20024;-71
2021/01/24 04:02:18;;;;;;;34.22;16.27;;;8.20;97.20;;;;;;5096537;28;20100;-75
2021/01/24 04:04:44;;;;;;;26.45;12.77;;;8.20;97.20;;;;;;5096122;28;20024;-75
2021/01/24 04:07:10;;;;;;;28.52;16.10;;;8.20;97.10;;;;;;5096392;28;20462;-75
2021/01/24 04:09:36;;;;;;;35.78;16.63;;;8.20;97.00;;;;;;5095831;28;20035;-75
2021/01/24 04:12:02;;;;;;;43.92;20.65;;;8.20;97.10;;;;;;5077841;28;20436;-74
2021/01/24 04:14:28;;;;;;;39.30;18.27;;;8.20;97.10;;;;;;5095826;28;20028;-74
2021/01/24 04:16:53;;;;;;;39.38;18.80;;;8.20;97.10;;;;;;5078658;28;20070;-75
2021/01/24 04:19:19;;;;;;;37.83;18.02;;;8.20;97.20;;;;;;5078002;28;20078;-75
2021/01/24 04:21:45;;;;;;;33.65;16.33;;;8.20;97.20;;;;;;5095968;28;20024;-75
2021/01/24 04:24:11;;;;;;;36.63;17.92;;;8.20;97.20;;;;;;5077832;28;20024;-75
2021/01/24 04:26:36;;;;;;;35.30;17.45;;;8.20;97.00;;;;;;5077786;28;20024;-74
2021/01/24 04:29:03;;;;;;;34.55;16.27;;;8.20;97.00;;;;;;5077257;28;20047;-74
2021/01/24 04:31:29;;;;;;;37.85;17.02;;;8.20;97.00;;;;;;5095861;28;20519;-76
2021/01/24 04:33:54;;;;;;;36.55;17.33;;;8.20;97.00;;;;;;5095328;28;20028;-75
2021/01/24 04:36:20;;;;;;;34.70;16.83;;;8.20;96.90;;;;;;5095676;28;20089;-75
2021/01/24 04:38:46;;;;;;;32.55;15.40;;;8.20;97.00;;;;;;5077425;28;20028;-75
2021/01/24 04:41:13;;;;;;;36.83;16.40;;;8.20;96.90;;;;;;5095631;28;20178;-75
2021/01/24 04:43:39;;;;;;;35.88;15.98;;;8.20;96.90;;;;;;5095603;28;20024;-75
2021/01/24 04:46:06;;;;;;;34.10;16.83;;;8.20;96.80;;;;;;5081381;28;20128;-74
2021/01/24 04:48:32;;;;;;;31.73;16.83;;;8.20;96.80;;;;;;5096013;28;20024;-74
2021/01/24 04:50:58;;;;;;;33.50;16.45;;;8.20;96.80;;;;;;5095289;28;20020;-75
2021/01/24 04:53:24;;;;;;;34.70;15.93;;;8.20;96.70;;;;;;5095434;28;20501;-75
2021/01/24 04:55:51;;;;;;;38.38;15.88;;;8.10;96.60;;;;;;5094831;28;20027;-72
2021/01/24 04:58:20;;;;;;;36.45;16.40;;;8.10;96.50;;;;;;5095516;28;20034;-74
2021/01/24 05:00:46;;;;;;;29.35;15.38;;;8.10;96.60;;;;;;5095069;28;20020;-74
2021/01/24 05:03:14;;;;;;;29.77;14.55;;;8.10;96.60;;;;;;5077081;28;20024;-74
2021/01/24 05:05:39;;;;;;;32.92;15.23;;;8.10;96.60;;;;;;5077244;28;20119;-75
2021/01/24 05:08:08;;;;;;;30.60;14.30;;;8.00;96.50;;;;;;5094853;28;20445;-74
2021/01/24 05:10:34;;;;;;;28.15;12.93;;;8.00;96.40;;;;;;5095037;28;20410;-74
2021/01/24 05:13:00;;;;;;;31.15;14.88;;;8.00;96.40;;;;;;5094938;28;20111;-74
2021/01/24 05:15:27;;;;;;;35.15;15.68;;;7.90;96.30;;;;;;5094847;28;20032;-74
2021/01/24 05:17:56;;;;;;;35.53;14.25;;;7.90;96.40;;;;;;5094424;28;20362;-73
2021/01/24 05:20:27;;;;;;;36.63;15.80;;;7.90;96.40;;;;;;5076515;28;20016;-75
2021/01/24 05:22:57;;;;;;;35.28;16.75;;;7.90;96.60;;;;;;5094780;28;20032;-73
2021/01/24 05:25:26;;;;;;;29.27;13.15;;;7.90;96.60;;;;;;5076634;28;20028;-74
2021/01/24 05:27:53;;;;;;;29.73;15.00;;;7.90;96.50;;;;;;5094644;28;20031;-74
2021/01/24 05:30:29;;;;;;;30.75;14.30;;;7.90;96.60;;;;;;5094217;28;20443;-74
2021/01/24 05:32:58;;;;;;;20.20;8.98;;;7.90;96.60;;;;;;5094589;28;20098;-74
2021/01/24 05:35:23;;;;;;;27.08;14.00;;;8.00;96.60;;;;;;5094159;28;20059;-74
2021/01/24 05:37:49;;;;;;;25.42;11.50;;;8.00;96.50;;;;;;5094334;28;20059;-71
2021/01/24 05:40:15;;;;;;;26.70;12.32;;;8.00;96.50;;;;;;5094365;28;20023;-71
2021/01/24 05:42:41;;;;;;;32.67;14.88;;;8.00;96.60;;;;;;5094642;28;20028;-74
2021/01/24 05:45:15;;;;;;;21.98;12.13;;;8.00;96.50;;;;;;5076154;28;20048;-74
2021/01/24 05:47:43;;;;;;;25.98;11.25;;;8.00;96.40;;;;;;5093888;28;20063;-75
2021/01/24 05:50:10;;;;;;;22.48;11.57;;;8.00;96.30;;;;;;5075697;28;20025;-75
2021/01/24 05:52:39;;;;;;;27.67;11.98;;;8.00;96.30;;;;;;5075952;28;20393;-75
2021/01/24 05:55:06;;;;;;;23.65;10.93;;;8.00;96.20;;;;;;5094257;28;20028;-75
2021/01/24 05:57:36;;;;;;;21.73;11.40;;;8.10;96.20;;;;;;5094015;28;20092;-75
2021/01/24 06:00:05;;;;;;;15.30;8.10;;;8.10;96.20;;;;;;5075800;28;20028;-75
2021/01/24 06:02:31;;;;;;;20.83;10.43;;;8.10;96.00;;;;;;5075656;28;20035;-75
2021/01/24 06:04:57;;;;;;;21.30;9.38;;;8.00;95.90;;;;;;5075758;28;20032;-75
2021/01/24 06:07:23;;;;;;;19.75;9.13;;;8.10;96.00;;;;;;5094113;28;20474;-75
2021/01/24 06:09:49;;;;;;;19.08;10.57;;;8.10;95.90;;;;;;5093759;28;20024;-75
2021/01/24 06:12:16;;;;;;;20.02;7.70;;;8.10;95.80;;;;;;5093909;28;20097;-75
2021/01/24 06:14:46;;;;;;;24.00;10.63;;;8.10;95.80;;;;;;5093065;28;20024;-75
2021/01/24 06:17:27;;;;;;;18.33;8.75;;;8.10;95.70;;;;;;5094516;28;20048;-74
2021/01/24 06:19:59;;;;;;;21.17;7.82;;;8.20;95.60;;;;;;5075135;28;20107;-74
2021/01/24 06:22:48;;;;;;;25.17;10.98;;;8.20;95.50;;;;;;5093706;28;20024;-75
2021/01/24 06:25:20;;;;;;;17.92;8.98;;;8.20;95.40;;;;;;5092049;28;20032;-75
2021/01/24 06:27:53;;;;;;;18.15;8.95;;;8.20;95.20;;;;;;5093608;28;20405;-75
2021/01/24 06:30:20;;;;;;;18.65;8.57;;;8.20;95.10;;;;;;5093611;28;20378;-75
2021/01/24 06:32:46;;;;;;;20.73;9.68;;;8.30;95.10;;;;;;5093298;28;20031;-75
2021/01/24 06:35:19;;;;;;;20.35;9.55;;;8.30;95.00;;;;;;5093301;28;20563;-74
2021/01/24 06:37:59;;;;;;;18.65;8.68;;;8.30;94.90;;;;;;5093443;28;20432;-74
2021/01/24 06:40:31;;;;;;;17.05;8.02;;;8.30;94.80;;;;;;5075343;28;20550;-74
2021/01/24 06:43:04;;;;;;;22.98;10.20;;;8.30;94.70;;;;;;5093425;28;20039;-75
2021/01/24 06:45:30;;;;;;;17.38;8.85;;;8.30;94.50;;;;;;5075296;28;20024;-74
2021/01/24 06:47:57;;;;;;;18.95;8.02;;;8.30;94.40;;;;;;5074764;28;20496;-74
2021/01/24 06:50:46;;;;;;;19.08;9.35;;;8.40;94.40;;;;;;5093425;28;20114;-74
2021/01/24 06:53:17;;;;;;;22.65;8.30;;;8.40;94.40;;;;;;5081908;28;20032;-75
2021/01/24 06:55:58;;;;;;;18.80;7.57;;;8.40;94.20;;;;;;5075082;28;20039;-75
2021/01/24 06:58:32;;;;;;;19.70;7.50;;;8.40;94.10;;;;;;5093178;28;20020;-75
2021/01/24 07:01:29;;;;;;;17.23;9.13;;;8.40;94.00;;;;;;5092810;28;20027;-76
2021/01/24 07:04:13;;;;;;;;;;;8.40;93.90;;;;;;5093449;28;20036;-74
2021/01/24 07:06:40;;;;;;;17.10;8.18;;;8.40;93.80;;;;;;5075042;28;19922;-75
2021/01/24 07:09:30;;;;;;;16.45;7.63;;;8.40;93.80;;;;;;5074998;28;20401;-73
2021/01/24 07:12:06;;;;;;;13.88;6.75;;;8.50;93.70;;;;;;5092722;28;20156;-75
2021/01/24 07:14:32;;;;;;;18.83;8.60;;;8.50;93.70;;;;;;5074490;28;20028;-75
2021/01/24 07:17:07;;;;;;;17.98;9.38;;;8.50;93.60;;;;;;5093227;28;20020;-76
2021/01/24 07:19:38;;;;;;;13.80;6.95;;;8.50;93.50;;;;;;5092839;28;20153;-75
2021/01/24 07:22:04;;;;;;;14.07;7.55;;;8.60;93.40;;;;;;5074700;28;20031;-75
2021/01/24 07:24:31;;;;;;;22.85;8.15;;;8.60;93.40;;;;;;5092962;28;20481;-75
2021/01/24 07:26:57;;;;;;;14.88;7.70;;;8.70;93.40;;;;;;5095655;28;20028;-76
2021/01/24 07:29:27;;;;;;;14.75;7.05;;;8.70;93.20;;;;;;5078740;28;20027;-75
2021/01/24 07:31:52;;;;;;;15.25;8.00;;;8.80;93.20;;;;;;5078092;28;20032;-76
2021/01/24 07:34:23;;;;;;;18.67;8.25;;;8.80;93.00;;;;;;5096936;28;20031;-76
2021/01/24 07:36:50;;;;;;;14.18;7.55;;;8.90;93.00;;;;;;5096757;28;20484;-77
2021/01/24 07:39:16;;;;;;;11.85;6.32;;;9.00;92.90;;;;;;5064910;28;20016;-76
2021/01/24 07:41:43;;;;;;;17.45;8.18;;;9.00;92.80;;;;;;5096629;28;20446;-75
2021/01/24 07:44:09;;;;;;;15.82;7.25;;;9.10;92.80;;;;;;5096497;28;20039;-76
2021/01/24 07:46:35;;;;;;;14.80;7.40;;;9.10;92.70;;;;;;5096766;28;20062;-76
2021/01/24 07:49:01;;;;;;;14.10;7.43;;;9.20;92.60;;;;;;5096365;28;20103;-76
2021/01/24 07:51:27;;;;;;;19.48;11.60;;;9.30;92.40;;;;;;5078414;28;20052;-76
2021/01/24 07:53:53;;;;;;;14.82;7.18;;;9.40;92.40;;;;;;5096310;28;20119;-74
2021/01/24 07:56:19;;;;;;;16.83;7.13;;;9.50;92.20;;;;;;5078364;28;20024;-75
2021/01/24 07:58:46;;;;;;;12.65;6.72;;;9.60;92.10;;;;;;5078246;28;20028;-75
2021/01/24 08:01:13;;;;;;;11.35;6.70;;;9.60;91.80;;;;;;5096162;28;20051;-74
2021/01/24 08:03:41;;;;;;;17.58;6.68;;;9.70;91.70;;;;;;5078135;28;20028;-75
2021/01/24 08:06:08;;;;;;;12.07;6.22;;;9.80;91.70;;;;;;5095725;28;20020;-75
2021/01/24 08:08:35;;;;;;;129.18;11.85;;;9.90;91.40;;;;;;5078011;28;20024;-76
2021/01/24 08:11:01;;;;;;;14.02;6.80;;;10.00;91.30;;;;;;5077761;28;20415;-76
2021/01/24 08:13:27;;;;;;;15.73;6.32;;;10.00;91.00;;;;;;5077724;28;20040;-76
2021/01/24 08:15:53;;;;;;;16.98;6.80;;;10.10;90.80;;;;;;5095734;28;20031;-74
2021/01/24 08:18:20;;;;;;;13.38;6.13;;;10.10;90.80;;;;;;5077802;28;20032;-75
2021/01/24 08:20:46;;;;;;;14.32;6.28;;;10.20;90.60;;;;;;5096186;28;20063;-75
2021/01/24 08:23:14;;;;;;;13.88;6.22;;;10.30;90.50;;;;;;5095743;28;20104;-75
2021/01/24 08:25:40;;;;;;;12.32;6.90;;;10.30;90.30;;;;;;5060315;28;20494;-76
2021/01/24 08:28:07;;;;;;;14.40;6.63;;;10.40;89.60;;;;;;5077553;28;20024;-76
2021/01/24 08:30:38;;;;;;;10.65;6.00;;;10.40;89.00;;;;;;5077188;28;20032;-75
2021/01/24 08:33:10;;;;;;;9.95;4.97;;;10.50;88.80;;;;;;5096001;28;20060;-76
2021/01/24 08:35:35;;;;;;;11.95;6.00;;;10.50;88.70;;;;;;5095634;28;20031;-76
2021/01/24 08:38:02;;;;;;;10.52;5.43;;;10.60;88.30;;;;;;5094896;28;20028;-75
2021/01/24 08:40:34;;;;;;;13.65;6.28;;;10.70;88.80;;;;;;5095254;28;20489;-75
2021/01/24 08:43:01;;;;;;;14.00;6.53;;;11.10;88.90;;;;;;5077215;28;20028;-75
2021/01/24 08:45:28;;;;;;;10.63;4.70;;;11.30;87.50;;;;;;5095567;28;20032;-75
2021/01/24 08:48:03;;;;;;;10.30;5.30;;;11.40;85.10;;;;;;5077224;28;20048;-75
2021/01/24 08:50:33;;;;;;;9.98;5.10;;;11.30;83.60;;;;;;5095592;28;20035;-75
2021/01/24 08:53:01;;;;;;;12.40;5.45;;;11.20;83.10;;;;;;5095208;28;20355;-74
2021/01/24 08:55:27;;;;;;;10.82;5.45;;;11.10;82.50;;;;;;5076915;28;20032;-74
2021/01/24 08:57:53;;;;;;;13.93;6.13;;;11.00;82.60;;;;;;5094841;28;20454;-75
2021/01/24 09:00:21;;;;;;;12.88;5.90;;;10.90;82.70;;;;;;5095316;28;20027;-75
2021/01/24 09:02:47;;;;;;;11.63;6.13;;;10.80;83.00;;;;;;5095143;28;20104;-75
2021/01/24 09:05:15;;;;;;;10.98;5.50;;;10.80;82.80;;;;;;5076853;28;20051;-75
2021/01/24 09:07:45;;;;;;;10.82;5.10;;;10.70;82.70;;;;;;5095306;28;20339;-74
2021/01/24 09:10:25;;;;;;;12.43;6.70;;;10.70;82.60;;;;;;5094842;28;20037;-76
2021/01/24 09:12:53;;;;;;;12.15;5.32;;;10.60;82.70;;;;;;5094793;28;20036;-74
2021/01/24 09:15:21;;;;;;;9.60;5.53;;;10.50;82.80;;;;;;5095646;28;20039;-74
2021/01/24 09:17:49;;;;;;;9.50;5.28;;;10.50;82.80;;;;;;5077114;28;20032;-74
2021/01/24 09:20:15;;;;;;;8.63;5.40;;;10.40;83.40;;;;;;5076844;28;20470;-75
2021/01/24 09:22:41;;;;;;;6.55;3.10;;;10.40;83.00;;;;;;5076581;28;20385;-75
2021/01/24 09:25:08;;;;;;;11.55;4.70;;;10.40;83.30;;;;;;5094770;28;20102;-75
2021/01/24 09:27:34;;;;;;;13.18;5.43;;;10.40;83.40;;;;;;5094625;28;20103;-75
2021/01/24 09:30:00;;;;;;;12.15;5.45;;;10.50;83.40;;;;;;5094404;28;20050;-74
2021/01/24 09:32:26;;;;;;;11.93;5.05;;;10.50;83.60;;;;;;5094659;28;20043;-75
2021/01/24 09:34:52;;;;;;;21.77;9.60;;;10.60;83.70;;;;;;5094402;28;20024;-75
2021/01/24 09:37:18;;;;;;;14.75;6.13;;;10.70;83.70;;;;;;5075867;28;20016;-75
2021/01/24 09:39:43;;;;;;;12.18;5.53;;;10.70;83.60;;;;;;5094721;28;20029;-76
2021/01/24 09:42:09;;;;;;;12.75;6.63;;;10.80;83.40;;;;;;5094024;28;20234;-75
2021/01/24 09:44:35;;;;;;;11.40;5.72;;;10.90;83.20;;;;;;5076172;28;20016;-76
2021/01/24 09:47:00;;;;;;;13.38;7.15;;;11.00;82.80;;;;;;5076022;28;20076;-75
2021/01/24 09:49:27;;;;;;;14.57;5.70;;;11.00;82.50;;;;;;5074883;28;20027;-75
2021/01/24 09:51:53;;;;;;;11.65;5.78;;;11.10;82.40;;;;;;5094239;28;20111;-75
2021/01/24 09:54:18;;;;;;;10.25;5.45;;;11.20;82.30;;;;;;5075937;28;20141;-75
2021/01/24 09:56:44;;;;;;;9.98;5.65;;;11.30;82.40;;;;;;5094256;28;20021;-76
2021/01/24 09:59:11;;;;;;;9.63;5.35;;;11.40;82.30;;;;;;5094085;28;20480;-76
2021/01/24 10:01:37;;;;;;;13.98;6.28;;;11.40;81.50;;;;;;5075816;28;20031;-75
2021/01/24 10:04:03;;;;;;;7.22;3.78;;;11.60;81.40;;;;;;5075531;28;20027;-71
2021/01/24 10:06:29;;;;;;;12.45;6.05;;;11.60;80.90;;;;;;5093541;28;20023;-76
2021/01/24 10:08:55;;;;;;;9.50;4.97;;;11.70;80.90;;;;;;5093716;28;20390;-76
2021/01/24 10:11:21;;;;;;;12.05;4.93;;;11.70;80.20;;;;;;5093556;28;20069;-76
2021/01/24 10:13:48;;;;;;;14.68;7.45;;;11.70;80.00;;;;;;5094044;28;20032;-75
2021/01/24 10:16:14;;;;;;;14.23;6.28;;;11.90;80.20;;;;;;5075301;28;20051;-75
2021/01/24 10:18:40;;;;;;;13.25;7.10;;;11.90;80.20;;;;;;5075766;28;20074;-76
2021/01/24 10:21:07;;;;;;;11.85;5.97;;;12.00;79.70;;;;;;5093506;28;20059;-75
2021/01/24 10:23:33;;;;;;;11.27;5.55;;;12.10;79.40;;;;;;5093438;28;20421;-75
2021/01/24 10:25:59;;;;;;;8.52;4.53;;;12.30;79.00;;;;;;5093507;28;20089;-74
2021/01/24 10:28:25;;;;;;;12.32;6.47;;;12.50;79.10;;;;;;5075448;28;20028;-74
2021/01/24 10:30:52;;;;;;;13.52;6.25;;;12.90;78.50;;;;;;5093644;28;20016;-75
2021/01/24 10:33:18;;;;;;;11.20;6.00;;;13.20;77.60;;;;;;5075243;28;20032;-75
2021/01/24 10:35:44;;;;;;;12.63;5.75;;;13.30;76.20;;;;;;5074953;28;20531;-75
2021/01/24 10:38:10;;;;;;;10.57;5.10;;;13.40;75.60;;;;;;5093335;28;20032;-75
2021/01/24 10:40:37;;;;;;;10.90;5.47;;;13.70;76.00;;;;;;5093153;28;20374;-76
2021/01/24 10:43:03;;;;;;;9.18;5.20;;;14.00;74.20;;;;;;5075309;28;20508;-75
2021/01/24 10:45:30;;;;;;;10.32;5.65;;;14.20;72.60;;;;;;5093245;28;20021;-75
2021/01/24 10:48:03;;;;;;;11.40;6.30;;;14.10;72.10;;;;;;5092853;28;20040;-75
2021/01/24 10:50:29;;;;;;;9.55;6.05;;;14.00;71.90;;;;;;5075159;28;20028;-74
2021/01/24 10:52:55;;;;;;;10.13;5.57;;;13.90;71.90;;;;;;5093245;28;20035;-76
2021/01/24 10:55:21;;;;;;;7.00;3.60;;;13.70;71.40;;;;;;5093289;28;20032;-75
2021/01/24 10:57:48;;;;;;;12.15;6.50;;;13.70;72.30;;;;;;5092854;28;20078;-75
2021/01/24 11:00:14;;;;;;;10.25;4.63;;;13.80;72.90;;;;;;5092721;28;20028;-75
2021/01/24 11:02:40;;;;;;;9.82;5.70;;;14.00;72.30;;;;;;5093035;28;20077;-75
2021/01/24 11:05:07;;;;;;;10.25;5.38;;;14.10;72.10;;;;;;5093113;28;20097;-75
2021/01/24 11:07:34;;;;;;;9.23;5.07;;;14.40;71.50;;;;;;5092963;28;20064;-74
2021/01/24 11:09:59;;;;;;;8.48;4.88;;;14.60;71.00;;;;;;5092858;28;20032;-75
2021/01/24 11:12:25;;;;;;;9.65;5.80;;;15.00;71.20;;;;;;5074917;28;20028;-75
2021/01/24 11:14:51;;;;;;;10.00;5.45;;;15.20;68.90;;;;;;5074758;28;20034;-76
2021/01/24 11:17:18;;;;;;;14.18;6.20;;;15.30;68.10;;;;;;5074777;28;20026;-75
2021/01/24 11:19:44;;;;;;;10.18;5.53;;;15.10;66.90;;;;;;5093116;28;20032;-75
2021/01/24 11:22:11;;;;;;;11.00;5.70;;;14.90;67.40;;;;;;5092829;28;20024;-75
2021/01/24 11:24:36;;;;;;;10.15;5.53;;;14.70;67.70;;;;;;5074942;28;20039;-76
2021/01/24 11:27:05;;;;;;;9.00;5.45;;;14.70;68.50;;;;;;5092858;28;20032;-76
2021/01/24 11:29:31;;;;;;;8.40;4.95;;;14.80;69.40;;;;;;5074703;28;20020;-75
2021/01/24 11:31:57;;;;;;;10.98;4.72;;;15.00;68.40;;;;;;5076152;28;20025;-76
2021/01/24 11:34:23;;;;;;;9.18;5.45;;;14.80;67.20;;;;;;5074969;28;20031;-76
2021/01/24 11:36:49;;;;;;;9.52;5.35;;;14.40;67.60;;;;;;5094120;28;20031;-76
2021/01/24 11:39:15;;;;;;;8.85;5.38;;;14.10;68.30;;;;;;5074827;28;20382;-76
2021/01/24 11:41:40;;;;;;;10.88;6.38;;;13.80;69.20;;;;;;5093468;28;20058;-76
2021/01/24 11:44:06;;;;;;;11.88;5.68;;;13.50;70.00;;;;;;5074229;28;20025;-74
2021/01/24 11:46:32;;;;;;;10.32;6.10;;;13.20;70.70;;;;;;5075263;28;20080;-76
2021/01/24 11:48:58;;;;;;;10.90;5.63;;;13.00;71.50;;;;;;5074974;28;20024;-75
2021/01/24 11:51:24;;;;;;;11.93;6.68;;;12.80;72.20;;;;;;5074920;28;20031;-75
2021/01/24 11:53:50;;;;;;;10.70;6.13;;;12.70;72.90;;;;;;5092253;28;20386;-73
2021/01/24 11:56:16;;;;;;;12.25;6.60;;;12.50;73.50;;;;;;5093363;28;20020;-77
2021/01/24 11:58:41;;;;;;;13.25;7.25;;;12.50;74.00;;;;;;5074527;28;20447;-76
2021/01/24 12:01:07;;;;;;;9.93;6.18;;;12.40;74.50;;;;;;5074092;28;20024;-76
2021/01/24 12:03:33;;;;;;;11.23;6.55;;;12.40;74.80;;;;;;5092613;28;20039;-75
2021/01/24 12:05:58;;;;;;;7.55;5.00;;;12.40;75.10;;;;;;5092335;28;20020;-75
2021/01/24 12:08:24;;;;;;;13.68;6.70;;;12.40;75.10;;;;;;5092573;28;20501;-75
2021/01/24 12:10:50;;;;;;;7.97;5.20;;;12.40;75.20;;;;;;5074305;28;20035;-76
2021/01/24 12:13:15;;;;;;;17.58;10.82;;;12.30;75.50;;;;;;5076929;28;20077;-74
2021/01/24 12:15:41;;;;;;;8.35;3.58;;;12.40;75.90;;;;;;5077990;28;20040;-75
2021/01/24 12:18:07;;;;;;;11.98;6.43;;;12.50;76.20;;;;;;5095744;28;20031;-75
2021/01/24 12:20:33;;;;;;;7.25;3.92;;;12.70;76.50;;;;;;5095860;28;20492;-76
2021/01/24 12:22:58;;;;;;;10.20;6.00;;;12.80;75.60;;;;;;5096080;28;20031;-76
2021/01/24 12:25:24;;;;;;;8.68;4.60;;;13.10;75.30;;;;;;5077756;28;20073;-76
2021/01/24 12:27:50;;;;;;;8.88;4.35;;;13.40;74.70;;;;;;5077467;28;20103;-72
2021/01/24 12:30:16;;;;;;;7.95;4.40;;;13.60;74.20;;;;;;5095484;28;20028;-75
2021/01/24 12:32:41;;;;;;;10.02;6.45;;;13.70;71.90;;;;;;5077746;28;20028;-75
2021/01/24 12:35:09;;;;;;;9.52;5.38;;;13.50;72.00;;;;;;5077618;28;20034;-74
2021/01/24 12:37:35;;;;;;;10.07;4.50;;;13.20;72.30;;;;;;5077928;28;20024;-75
2021/01/24 12:40:03;;;;;;;10.35;6.13;;;13.00;73.10;;;;;;5095711;28;20420;-75
2021/01/24 12:42:28;;;;;;;10.35;6.47;;;12.80;73.70;;;;;;5095785;28;20469;-74
2021/01/24 12:44:54;;;;;;;8.20;4.72;;;12.60;74.30;;;;;;5095708;28;20020;-74